Time;durP1;ratioP1;P1;durP2;ratioP2;P2;SDS_P1;SDS_P2;PMS_P1;PMS_P2;Temp;Humidity;BMP_temperature;BMP_pressure;BME280_temperature;BME280_humidity;BME280_pressure;Samples;Min_cycle;Max_cycle;Signal;HPM_P1;HPM_P2
2021/07/17 00:00:15;;;;;;;26.27;8.30;;;;;;;17.63;78.56;102450.38;5074674;28;20044;-60
2021/07/17 00:02:43;;;;;;;28.60;8.23;;;;;;;17.63;78.72;102449.53;5074685;28;20059;-59
2021/07/17 00:05:13;;;;;;;29.85;8.05;;;;;;;17.62;78.64;102456.97;5074775;28;20040;-60
2021/07/17 00:07:41;;;;;;;27.65;8.25;;;;;;;17.59;78.67;102451.22;5074264;28;20418;-59
2021/07/17 00:10:15;;;;;;;31.08;8.38;;;;;;;17.59;78.83;102451.22;5074217;28;20044;-59
2021/07/17 00:12:44;;;;;;;32.83;8.57;;;;;;;17.59;78.74;102452.03;5074189;28;20048;-60
2021/07/17 00:15:13;;;;;;;27.25;8.85;;;;;;;17.57;78.61;102451.47;5074230;28;20056;-59
2021/07/17 00:17:41;;;;;;;24.65;7.85;;;;;;;17.61;78.86;102454.53;5074122;28;20036;-59
2021/07/17 00:20:11;;;;;;;24.42;8.05;;;;;;;17.59;78.84;102449.28;5074606;28;20076;-59
2021/07/17 00:22:39;;;;;;;27.85;8.52;;;;;;;17.63;78.78;102455.03;5074201;28;20127;-59
2021/07/17 00:25:09;;;;;;;31.35;8.30;;;;;;;17.59;78.84;102449.28;5073984;28;20045;-57
2021/07/17 00:27:37;;;;;;;27.83;9.05;;;;;;;17.57;78.60;102453.41;5066272;28;20506;-59
2021/07/17 00:30:08;;;;;;;29.25;8.30;;;;;;;17.55;78.91;102444.59;5073964;28;20123;-59
2021/07/17 00:32:36;;;;;;;28.88;8.80;;;;;;;17.57;78.87;102447.91;5070533;28;20059;-54
2021/07/17 00:35:08;;;;;;;24.77;7.18;;;;;;;17.59;78.95;102437.44;5058707;28;20079;-57
2021/07/17 00:37:35;;;;;;;25.95;8.52;;;;;;;17.63;78.98;102447.63;5067661;28;20056;-59
2021/07/17 00:40:14;;;;;;;24.20;8.52;;;;;;;17.66;78.64;102449.81;5062445;28;20048;-59
2021/07/17 00:42:43;;;;;;;26.88;8.40;;;;;;;17.66;78.68;102447.06;5073692;28;20052;-59
2021/07/17 00:45:11;;;;;;;24.45;7.90;;;;;;;17.66;78.60;102451.75;5055661;28;20440;-59
2021/07/17 00:47:40;;;;;;;28.38;7.20;;;;;;;17.65;78.65;102447.34;5060672;28;20056;-59
2021/07/17 00:50:10;;;;;;;25.23;8.20;;;;;;;17.65;78.57;102455.59;5053482;28;20045;-58
2021/07/17 00:52:38;;;;;;;25.58;7.53;;;;;;;17.60;78.87;102448.16;5066005;28;20044;-59
2021/07/17 00:55:07;;;;;;;24.38;8.20;;;;;;;17.60;78.80;102439.06;5073730;28;20376;-59
2021/07/17 00:57:36;;;;;;;22.52;7.57;;;;;;;17.61;78.77;102444.31;5073625;28;20062;-58
2021/07/17 01:00:11;;;;;;;24.88;9.05;;;;;;;17.63;78.67;102442.13;5073809;28;20044;-57
2021/07/17 01:02:44;;;;;;;27.45;8.27;;;;;;;17.64;78.79;102438.25;5073616;28;20037;-60
2021/07/17 01:05:13;;;;;;;24.05;7.95;;;;;;;17.62;78.76;102436.88;5056087;28;20048;-59
2021/07/17 01:07:48;;;;;;;24.70;8.02;;;;;;;17.63;78.87;102441.25;5052958;28;20056;-60
2021/07/17 01:10:19;;;;;;;24.20;8.32;;;;;;;17.63;78.82;102441.25;5070165;28;20407;-55
2021/07/17 01:12:48;;;;;;;22.10;7.90;;;;;;;17.60;78.82;102441.81;5073207;28;20076;-55
2021/07/17 01:15:16;;;;;;;27.13;7.72;;;;;;;17.61;78.78;102440.75;5072860;28;20049;-55
2021/07/17 01:17:44;;;;;;;25.50;8.02;;;;;;;17.59;78.76;102441.00;5072990;28;20045;-59
2021/07/17 01:20:19;;;;;;;24.23;7.57;;;;;;;17.59;78.92;102440.19;5072728;28;20040;-55
2021/07/17 01:22:47;;;;;;;21.85;7.35;;;;;;;17.58;78.80;102433.00;5073030;28;20051;-59
2021/07/17 01:25:18;;;;;;;28.33;8.50;;;;;;;17.57;78.95;102439.63;5073149;28;20048;-52
2021/07/17 01:27:46;;;;;;;27.50;8.25;;;;;;;17.57;78.74;102443.22;5055286;28;20375;-59
2021/07/17 01:30:17;;;;;;;26.58;8.60;;;;;;;17.56;79.01;102438.00;5055355;28;20040;-59
2021/07/17 01:32:45;;;;;;;23.63;8.20;;;;;;;17.56;78.88;102443.50;5072973;28;20040;-58
2021/07/17 01:35:13;;;;;;;25.77;7.45;;;;;;;17.56;79.05;102444.31;5072659;28;20047;-59
2021/07/17 01:37:41;;;;;;;21.10;8.15;;;;;;;17.56;78.89;102441.56;5068836;28;20041;-59
2021/07/17 01:40:12;;;;;;;23.20;7.68;;;;;;;17.56;78.80;102436.06;5034999;28;20052;-60
2021/07/17 01:42:40;;;;;;;26.83;8.23;;;;;;;17.55;78.93;102439.88;5069193;28;20051;-60
2021/07/17 01:45:08;;;;;;;23.58;8.15;;;;;;;17.54;79.01;102440.19;5054578;28;20384;-60
2021/07/17 01:47:36;;;;;;;24.00;7.60;;;;;;;17.53;79.18;102441.28;5072208;28;20048;-58
2021/07/17 01:50:07;;;;;;;23.13;6.78;;;;;;;17.52;78.96;102440.44;5072436;28;20526;-59
2021/07/17 01:52:35;;;;;;;28.17;8.23;;;;;;;17.50;78.90;102439.91;5072120;28;20048;-58
2021/07/17 01:55:06;;;;;;;29.80;7.70;;;;;;;17.51;79.30;102440.72;5072667;28;20050;-58
2021/07/17 01:57:34;;;;;;;26.13;8.52;;;;;;;17.51;79.32;102437.97;5072281;28;20044;-59
2021/07/17 02:00:02;;;;;;;27.15;7.65;;;;;;;17.49;79.12;102441.00;5072339;28;20536;-58
2021/07/17 02:02:33;;;;;;;23.25;6.93;;;;;;;17.48;79.42;102436.59;5072498;28;20051;-58
2021/07/17 02:05:05;;;;;;;23.98;7.53;;;;;;;17.49;79.43;102431.94;5071934;28;20032;-59
2021/07/17 02:07:34;;;;;;;28.67;8.20;;;;;;;17.51;79.45;102426.94;5054342;28;20044;-60
2021/07/17 02:10:10;;;;;;;24.08;8.63;;;;;;;17.51;79.43;102427.78;5072272;28;20048;-58
2021/07/17 02:12:39;;;;;;;24.45;7.93;;;;;;;17.51;79.58;102432.44;5072175;28;20087;-58
2021/07/17 02:15:10;;;;;;;26.75;8.38;;;;;;;17.45;79.41;102429.69;5071833;28;20479;-58
2021/07/17 02:17:38;;;;;;;23.33;8.18;;;;;;;17.38;79.63;102429.13;5072246;28;20110;-59
2021/07/17 02:20:06;;;;;;;26.83;8.32;;;;;;;17.39;79.95;102429.97;5053717;28;20052;-59
2021/07/17 02:22:33;;;;;;;26.52;8.23;;;;;;;17.38;79.79;102423.63;5072201;28;20368;-58
2021/07/17 02:25:01;;;;;;;22.25;8.15;;;;;;;17.39;79.80;102428.06;5072140;28;20044;-59
2021/07/17 02:27:28;;;;;;;29.00;7.60;;;;;;;17.34;79.96;102433.56;5072197;28;20427;-59
2021/07/17 02:29:56;;;;;;;25.08;7.95;;;;;;;17.33;80.03;102429.13;5072209;28;20040;-60
2021/07/17 02:32:24;;;;;;;26.02;8.38;;;;;;;17.33;79.82;102429.13;5043981;28;20043;-59
2021/07/17 02:34:51;;;;;;;26.02;7.85;;;;;;;17.31;80.10;102434.09;5071992;28;20040;-59
2021/07/17 02:37:20;;;;;;;23.38;8.65;;;;;;;17.29;79.85;102436.28;5070890;28;20044;-60
2021/07/17 02:39:48;;;;;;;21.50;7.32;;;;;;;17.33;80.02;102450.38;5059122;28;20040;-57
2021/07/17 02:42:15;;;;;;;26.92;8.07;;;;;;;17.34;79.91;102444.59;5072218;28;20040;-58
2021/07/17 02:44:42;;;;;;;23.85;7.10;;;;;;;17.34;80.05;102439.06;5071610;28;20056;-54
2021/07/17 02:47:10;;;;;;;28.17;8.48;;;;;;;17.31;79.69;102439.59;5071708;28;20049;-58
2021/07/17 02:49:38;;;;;;;23.55;8.23;;;;;;;17.28;79.99;102434.66;5071432;28;20036;-59
2021/07/17 02:52:05;;;;;;;27.15;8.10;;;;;;;17.25;79.86;102446.22;5071818;28;20059;-58
2021/07/17 02:54:33;;;;;;;22.88;8.05;;;;;;;17.24;79.58;102450.91;5071831;28;20041;-56
2021/07/17 02:57:01;;;;;;;28.23;9.93;;;;;;;17.22;79.73;102446.75;5072029;28;20056;-58
2021/07/17 02:59:28;;;;;;;25.30;7.90;;;;;;;17.22;79.55;102452.25;5071591;28;20198;-59
2021/07/17 03:01:56;;;;;;;21.80;7.55;;;;;;;17.22;79.61;102446.75;5071641;28;20049;-52
2021/07/17 03:04:24;;;;;;;25.05;8.38;;;;;;;17.27;79.47;102448.69;5071916;28;20079;-59
2021/07/17 03:06:52;;;;;;;28.27;8.25;;;;;;;17.24;79.13;102455.56;5075574;28;20052;-59
2021/07/17 03:09:19;;;;;;;24.23;7.88;;;;;;;17.17;79.11;102455.84;5075814;28;20048;-58
2021/07/17 03:11:47;;;;;;;23.95;8.45;;;;;;;17.18;79.25;102457.50;5075387;28;20052;-59
2021/07/17 03:14:14;;;;;;;23.85;7.95;;;;;;;17.16;79.18;102458.88;5075480;28;20086;-59
2021/07/17 03:16:42;;;;;;;23.95;7.15;;;;;;;17.15;79.43;102455.31;5075571;28;20041;-59
2021/07/17 03:19:10;;;;;;;20.20;7.40;;;;;;;17.17;79.44;102460.50;5075526;28;20491;-59
2021/07/17 03:21:39;;;;;;;22.88;7.75;;;;;;;17.19;78.89;102461.06;5076113;28;20056;-60
2021/07/17 03:24:06;;;;;;;24.63;7.82;;;;;;;17.16;78.75;102464.38;5075758;28;20032;-59
2021/07/17 03:26:34;;;;;;;29.65;8.00;;;;;;;17.16;79.16;102459.69;5075427;28;20086;-59
2021/07/17 03:29:01;;;;;;;25.05;7.68;;;;;;;17.13;78.51;102464.94;5075525;28;20052;-59
2021/07/17 03:31:30;;;;;;;26.45;7.20;;;;;;;17.12;78.70;102463.25;5074542;28;20044;-59
2021/07/17 03:33:59;;;;;;;22.42;7.68;;;;;;;17.16;78.63;102464.38;5075199;28;20047;-59
2021/07/17 03:36:27;;;;;;;24.42;7.63;;;;;;;17.21;78.62;102469.91;5074980;28;20482;-58
2021/07/17 03:38:54;;;;;;;22.85;7.22;;;;;;;17.22;77.83;102464.13;5061311;28;20056;-59
2021/07/17 03:41:22;;;;;;;27.08;8.07;;;;;;;17.17;77.93;102461.38;5047148;28;20037;-59
2021/07/17 03:43:49;;;;;;;24.48;7.88;;;;;;;17.16;78.24;102469.91;5075290;28;20040;-59
2021/07/17 03:46:17;;;;;;;22.63;7.47;;;;;;;17.11;78.31;102461.63;5074105;28;20056;-59
2021/07/17 03:48:45;;;;;;;30.02;8.80;;;;;;;17.11;78.22;102467.13;5074989;28;20055;-59
2021/07/17 03:51:13;;;;;;;24.77;7.53;;;;;;;17.06;78.49;102461.63;5075013;28;20036;-59
2021/07/17 03:53:40;;;;;;;20.50;7.15;;;;;;;17.01;78.77;102459.69;5075193;28;20037;-59
2021/07/17 03:56:08;;;;;;;25.85;7.43;;;;;;;17.03;78.86;102451.97;5074833;28;20048;-59
2021/07/17 03:58:35;;;;;;;21.15;7.28;;;;;;;17.07;78.86;102457.75;5074863;28;20055;-58
2021/07/17 04:01:03;;;;;;;22.52;8.05;;;;;;;17.11;78.65;102459.69;5060138;28;20049;-60
2021/07/17 04:03:32;;;;;;;23.08;7.22;;;;;;;17.14;78.62;102461.06;5060840;28;20044;-57
2021/07/17 04:06:00;;;;;;;21.15;6.88;;;;;;;17.18;78.89;102467.69;5074703;28;20139;-59
2021/07/17 04:08:28;;;;;;;25.17;7.93;;;;;;;17.17;78.51;102466.03;5074573;28;20063;-59
2021/07/17 04:10:56;;;;;;;21.30;7.43;;;;;;;17.17;78.65;102460.50;5074802;28;20376;-59
2021/07/17 04:13:23;;;;;;;24.80;7.15;;;;;;;17.17;78.84;102457.75;5074207;28;20060;-56
2021/07/17 04:15:51;;;;;;;21.73;7.80;;;;;;;17.17;78.94;102460.50;5073223;28;20055;-59
2021/07/17 04:18:18;;;;;;;24.55;7.65;;;;;;;17.18;79.03;102451.16;5074422;28;20056;-58
2021/07/17 04:20:46;;;;;;;21.45;7.00;;;;;;;17.20;79.11;102449.78;5074637;28;20071;-59
2021/07/17 04:23:13;;;;;;;21.60;7.20;;;;;;;17.22;78.89;102460.53;5074319;28;20040;-53
2021/07/17 04:25:41;;;;;;;27.38;7.88;;;;;;;17.16;79.31;102464.38;5068606;28;20041;-54
2021/07/17 04:28:08;;;;;;;23.35;8.23;;;;;;;17.14;79.41;102466.59;5064238;28;20460;-56
2021/07/17 04:30:36;;;;;;;23.80;8.43;;;;;;;17.02;79.91;102464.88;5049509;28;20051;-55
2021/07/17 04:33:04;;;;;;;25.42;8.85;;;;;;;16.93;80.31;102466.53;5065729;28;20104;-53
2021/07/17 04:35:31;;;;;;;28.77;7.78;;;;;;;16.93;80.18;102458.28;5048786;28;20052;-53
2021/07/17 04:37:59;;;;;;;27.27;9.52;;;;;;;16.94;80.26;102461.84;5040434;28;20059;-58
2021/07/17 04:40:26;;;;;;;25.27;8.70;;;;;;;16.93;80.66;102466.53;5053664;28;20045;-56
2021/07/17 04:42:54;;;;;;;27.33;8.27;;;;;;;16.95;80.62;102463.50;5072298;28;20044;-55
2021/07/17 04:45:21;;;;;;;27.40;8.75;;;;;;;16.94;80.45;102461.84;5073166;28;20052;-54
2021/07/17 04:47:49;;;;;;;26.75;7.97;;;;;;;16.96;80.47;102459.66;5073747;28;20044;-59
2021/07/17 04:50:16;;;;;;;25.05;8.02;;;;;;;16.97;81.05;102456.63;5073745;28;20047;-58
2021/07/17 04:52:44;;;;;;;27.35;8.48;;;;;;;17.00;80.53;102467.13;5055370;28;20044;-58
2021/07/17 04:55:11;;;;;;;26.65;7.70;;;;;;;16.99;80.64;102462.69;5073695;28;20678;-56
2021/07/17 04:57:40;;;;;;;21.42;7.93;;;;;;;17.00;81.01;102458.00;5073072;28;20047;-57
2021/07/17 05:00:08;;;;;;;23.45;7.65;;;;;;;17.01;80.72;102456.91;5073305;28;20123;-54
2021/07/17 05:03:05;;;;;;;34.63;9.50;;;;;;;17.03;80.67;102455.56;5073568;28;20491;-55
2021/07/17 05:05:33;;;;;;;30.38;8.73;;;;;;;17.07;81.01;102463.25;4991743;28;20062;-57
2021/07/17 05:08:01;;;;;;;35.90;9.40;;;;;;;17.07;80.79;102469.59;4991697;28;20051;-59
2021/07/17 05:10:29;;;;;;;24.45;8.00;;;;;;;17.06;80.89;102469.88;4991309;28;20051;-57
2021/07/17 05:12:57;;;;;;;30.92;8.05;;;;;;;17.03;81.20;102472.06;4991620;28;20054;-56
2021/07/17 05:15:24;;;;;;;26.63;8.40;;;;;;;17.01;81.63;102467.94;4991531;28;20455;-57
2021/07/17 05:17:52;;;;;;;23.30;7.72;;;;;;;17.01;81.96;102468.75;4991683;28;20070;-54
2021/07/17 05:20:19;;;;;;;31.42;8.60;;;;;;;17.04;81.80;102476.47;4991538;28;20058;-57
2021/07/17 05:22:47;;;;;;;28.10;8.43;;;;;;;17.04;81.80;102470.97;4991332;28;20068;-56
2021/07/17 05:25:14;;;;;;;28.50;8.93;;;;;;;17.04;82.27;102481.16;4991126;28;20058;-54
2021/07/17 05:27:42;;;;;;;29.70;8.43;;;;;;;17.02;82.14;102475.91;4990353;28;20134;-56
2021/07/17 05:30:10;;;;;;;25.20;7.70;;;;;;;16.99;82.53;102479.22;4991017;28;20050;-56
2021/07/17 05:32:37;;;;;;;26.63;8.65;;;;;;;17.05;82.48;102474.53;4991294;28;20092;-55
2021/07/17 05:35:05;;;;;;;32.78;9.20;;;;;;;17.11;82.38;102486.41;4991085;28;20635;-53
2021/07/17 05:37:34;;;;;;;31.77;9.07;;;;;;;17.11;82.40;102483.66;4988593;28;20145;-56
2021/07/17 05:40:02;;;;;;;32.05;8.85;;;;;;;17.12;82.67;102479.78;4980390;28;20046;-56
2021/07/17 05:42:29;;;;;;;28.63;9.55;;;;;;;17.10;82.69;102490.25;5048267;28;20057;-56
2021/07/17 05:44:57;;;;;;;26.80;8.65;;;;;;;17.05;83.01;102485.56;5068850;28;20057;-55
2021/07/17 05:47:25;;;;;;;25.52;9.07;;;;;;;17.08;83.32;102484.19;5061118;28;20037;-54
2021/07/17 05:49:52;;;;;;;31.95;8.82;;;;;;;17.10;83.10;102479.22;5058644;28;20032;-50
2021/07/17 05:52:20;;;;;;;32.42;9.02;;;;;;;17.12;83.03;102480.63;5063376;28;20106;-58
2021/07/17 05:54:48;;;;;;;29.58;9.27;;;;;;;17.12;83.28;102485.31;5065388;28;20047;-54
2021/07/17 05:57:16;;;;;;;29.00;8.35;;;;;;;17.13;83.39;102478.72;5064461;28;20040;-54
2021/07/17 05:59:44;;;;;;;27.73;8.50;;;;;;;17.17;83.47;102480.66;5064156;28;20446;-57
2021/07/17 06:02:11;;;;;;;32.92;9.27;;;;;;;17.19;83.24;102485.88;5066273;28;20052;-56
2021/07/17 06:04:39;;;;;;;23.73;8.02;;;;;;;17.23;83.24;102485.06;5062370;28;20052;-58
2021/07/17 06:07:06;;;;;;;26.95;8.32;;;;;;;17.21;83.27;102483.69;5058976;28;20048;-56
2021/07/17 06:09:37;;;;;;;26.05;9.15;;;;;;;17.22;83.29;102491.69;5061109;28;20083;-56
2021/07/17 06:12:06;;;;;;;29.55;8.98;;;;;;;17.19;83.27;102485.88;5066333;28;20049;-57
2021/07/17 06:14:35;;;;;;;24.15;8.02;;;;;;;17.19;83.25;102491.38;5071647;28;20422;-58
2021/07/17 06:17:03;;;;;;;24.05;9.02;;;;;;;17.20;83.05;102493.06;5071853;28;20040;-58
2021/07/17 06:19:30;;;;;;;27.67;8.82;;;;;;;17.20;83.31;102501.31;5071579;28;20048;-58
2021/07/17 06:21:58;;;;;;;26.40;8.23;;;;;;;17.18;83.27;102506.25;5071970;28;20036;-58
2021/07/17 06:24:26;;;;;;;25.00;9.25;;;;;;;17.10;83.30;102498.50;5071826;28;20076;-58
2021/07/17 06:26:54;;;;;;;26.33;8.75;;;;;;;17.10;83.73;102504.03;5071466;28;20052;-60
2021/07/17 06:29:21;;;;;;;24.67;8.15;;;;;;;17.13;83.71;102503.50;5071773;28;20048;-61
2021/07/17 06:31:49;;;;;;;28.70;8.43;;;;;;;17.18;83.61;102506.25;5071461;28;20056;-61
2021/07/17 06:34:16;;;;;;;26.70;8.88;;;;;;;17.22;83.69;102518.38;5072259;28;20044;-60
2021/07/17 06:36:45;;;;;;;25.13;8.63;;;;;;;17.24;83.39;102521.69;5071643;28;20106;-60
2021/07/17 06:39:13;;;;;;;19.60;7.72;;;;;;;17.23;83.33;102520.03;5053731;28;20044;-58
2021/07/17 06:41:40;;;;;;;23.40;8.23;;;;;;;17.29;83.42;102524.44;5071860;28;20040;-58
2021/07/17 06:44:08;;;;;;;22.65;7.63;;;;;;;17.34;83.16;102512.63;5071547;28;20053;-57
2021/07/17 06:46:36;;;;;;;22.90;8.02;;;;;;;17.38;83.13;102517.31;5071870;28;20135;-56
2021/07/17 06:49:03;;;;;;;22.00;7.63;;;;;;;17.40;82.70;102528.91;5071835;28;20049;-59
2021/07/17 06:51:34;;;;;;;21.95;7.65;;;;;;;17.40;82.79;102517.88;5071772;28;20138;-60
2021/07/17 06:54:02;;;;;;;20.48;7.00;;;;;;;17.38;83.05;102528.34;5071691;28;20052;-61
2021/07/17 06:56:29;;;;;;;18.30;6.90;;;;;;;17.43;82.85;102531.09;5071614;28;20037;-59
2021/07/17 06:58:57;;;;;;;21.60;7.57;;;;;;;17.41;82.81;102533.31;5071636;28;20116;-59
2021/07/17 07:01:24;;;;;;;21.33;7.38;;;;;;;17.41;82.64;102533.31;5071466;28;20052;-60
2021/07/17 07:03:52;;;;;;;22.92;7.63;;;;;;;17.44;82.58;102537.47;5071766;28;20048;-59
2021/07/17 07:06:20;;;;;;;20.15;7.75;;;;;;;17.41;82.44;102535.22;5071488;28;20051;-59
2021/07/17 07:08:48;;;;;;;22.10;7.07;;;;;;;17.43;82.24;102539.38;5071376;28;20494;-59
2021/07/17 07:11:15;;;;;;;23.95;7.95;;;;;;;17.44;82.49;102538.28;5053648;28;20430;-56
2021/07/17 07:13:43;;;;;;;20.60;7.00;;;;;;;17.47;82.14;102542.41;5071491;28;20128;-59
2021/07/17 07:16:11;;;;;;;19.80;7.15;;;;;;;17.50;82.16;102552.06;5053543;28;20037;-60
2021/07/17 07:18:38;;;;;;;19.35;6.88;;;;;;;17.50;82.10;102549.31;5067949;28;20036;-60
2021/07/17 07:21:07;;;;;;;18.83;6.20;;;;;;;17.48;82.50;102543.25;5072286;28;20443;-59
2021/07/17 07:23:35;;;;;;;21.20;7.57;;;;;;;17.48;82.29;102549.56;5086860;28;20403;-61
2021/07/17 07:26:03;;;;;;;21.90;7.18;;;;;;;17.50;82.16;102554.81;5076408;28;20407;-59
2021/07/17 07:28:30;;;;;;;23.17;7.35;;;;;;;17.56;82.00;102556.50;5068475;28;20070;-59
2021/07/17 07:30:59;;;;;;;18.50;6.82;;;;;;;17.63;82.24;102552.38;5077475;28;20043;-59
2021/07/17 07:33:26;;;;;;;20.98;7.03;;;;;;;17.71;82.00;102559.28;5075493;28;20044;-58
2021/07/17 07:35:54;;;;;;;21.38;7.28;;;;;;;17.81;82.00;102547.47;5070169;28;20044;-57
2021/07/17 07:38:21;;;;;;;20.48;7.22;;;;;;;17.82;81.01;102555.47;5070154;28;20040;-55
2021/07/17 07:40:49;;;;;;;19.50;6.72;;;;;;;17.83;81.59;102562.63;5079292;28;20055;-58
2021/07/17 07:43:17;;;;;;;19.23;7.28;;;;;;;17.86;81.44;102564.81;5071281;28;20128;-57
2021/07/17 07:45:44;;;;;;;18.27;6.68;;;;;;;17.86;80.65;102556.56;5058931;28;20040;-59
2021/07/17 07:48:12;;;;;;;22.52;7.10;;;;;;;17.85;80.23;102560.41;5078412;28;20395;-59
2021/07/17 07:50:39;;;;;;;17.13;6.25;;;;;;;17.84;80.73;102547.72;5069231;28;20114;-58
2021/07/17 07:53:07;;;;;;;16.75;6.43;;;;;;;17.89;81.04;102555.16;5061995;28;20048;-58
2021/07/17 07:55:34;;;;;;;25.48;6.88;;;;;;;17.92;80.83;102551.03;5062730;28;20051;-59
2021/07/17 07:58:02;;;;;;;17.15;6.68;;;;;;;17.92;80.17;102556.53;5078458;28;20031;-59
2021/07/17 08:00:29;;;;;;;15.77;6.57;;;;;;;17.96;79.81;102547.44;5083264;28;20048;-59
2021/07/17 08:02:57;;;;;;;15.65;6.03;;;;;;;17.99;79.32;102559.84;5081289;28;20035;-56
2021/07/17 08:05:25;;;;;;;18.17;6.57;;;;;;;18.02;79.54;102551.88;5084695;28;20127;-53
2021/07/17 08:07:54;;;;;;;17.42;5.75;;;;;;;18.05;78.51;102550.50;5080857;28;20803;-54
2021/07/17 08:10:22;;;;;;;15.27;5.82;;;;;;;18.10;78.70;102553.25;5080742;28;20040;-56
2021/07/17 08:12:50;;;;;;;17.77;6.10;;;;;;;18.16;78.62;102554.91;5072691;28;20048;-57
2021/07/17 08:15:18;;;;;;;15.30;6.07;;;;;;;18.22;78.71;102550.22;5074925;28;20038;-58
2021/07/17 08:17:46;;;;;;;18.90;5.80;;;;;;;18.27;79.07;102548.25;5087362;28;20044;-61
2021/07/17 08:20:14;;;;;;;17.98;5.82;;;;;;;18.33;78.69;102542.72;5076188;28;20060;-54
2021/07/17 08:22:42;;;;;;;17.30;5.80;;;;;;;18.39;77.65;102547.16;5082294;28;20123;-58
2021/07/17 08:25:10;;;;;;;16.38;6.15;;;;;;;18.41;77.90;102551.28;5070897;28;20465;-55
2021/07/17 08:27:38;;;;;;;13.55;5.85;;;;;;;18.44;78.20;102556.22;5087940;28;20119;-56
2021/07/17 08:30:09;;;;;;;20.38;6.18;;;;;;;18.48;77.91;102553.75;5051852;28;20051;-58
2021/07/17 08:32:52;;;;;;;;;;;;;;;18.55;77.62;102551.53;5087827;28;20048;-57
2021/07/17 08:35:20;;;;;;;15.73;5.63;;;;;;;18.56;77.58;102558.69;5083347;28;20298;-58
2021/07/17 08:37:48;;;;;;;20.60;6.22;;;;;;;18.57;77.80;102552.09;5084517;28;20040;-60
2021/07/17 08:40:15;;;;;;;21.92;6.85;;;;;;;18.69;77.99;102552.59;5086217;28;20054;-58
2021/07/17 08:42:44;;;;;;;16.70;6.00;;;;;;;18.73;78.48;102541.81;5072682;28;20045;-59
2021/07/17 08:45:13;;;;;;;15.63;6.22;;;;;;;18.77;78.10;102548.47;5090760;28;20044;-58
2021/07/17 08:47:42;;;;;;;18.35;6.43;;;;;;;18.87;77.73;102550.34;5086095;28;20042;-59
2021/07/17 08:50:16;;;;;;;16.35;5.75;;;;;;;18.90;77.84;102555.31;5077006;28;20103;-55
2021/07/17 08:52:44;;;;;;;17.52;5.93;;;;;;;18.93;76.91;102546.47;5073553;28;20036;-54
2021/07/17 08:55:13;;;;;;;16.48;5.85;;;;;;;19.01;77.12;102547.81;5055845;28;20040;-54
2021/07/17 08:57:45;;;;;;;13.68;5.72;;;;;;;19.05;77.43;102538.69;5073566;28;20036;-54
2021/07/17 09:00:15;;;;;;;21.05;6.20;;;;;;;19.05;76.69;102546.97;5073649;28;20144;-56
2021/07/17 09:02:53;;;;;;;23.05;5.95;;;;;;;19.07;76.63;102547.53;5072236;28;20036;-58
2021/07/17 09:05:25;;;;;;;16.30;5.40;;;;;;;19.10;76.06;102546.94;5073004;28;20139;-58
2021/07/17 09:07:54;;;;;;;15.90;5.43;;;;;;;19.20;76.15;102540.53;5073426;28;20048;-56
2021/07/17 09:10:50;;;;;;;19.23;6.47;;;;;;;19.29;74.66;102551.81;5055423;28;20133;-58
2021/07/17 09:13:26;;;;;;;18.67;5.55;;;;;;;19.32;73.87;102542.97;5070748;28;20055;-56
2021/07/17 09:15:57;;;;;;;18.55;6.03;;;;;;;19.32;74.16;102549.31;5072832;28;20525;-57
2021/07/17 09:18:29;;;;;;;15.13;5.00;;;;;;;19.30;73.27;102539.66;5072963;28;20082;-54
2021/07/17 09:21:02;;;;;;;15.02;5.28;;;;;;;19.34;74.37;102546.28;5073127;28;20061;-55
2021/07/17 09:23:36;;;;;;;15.05;5.05;;;;;;;19.46;73.91;102538.47;5072742;28;20076;-52
2021/07/17 09:26:18;;;;;;;20.30;5.60;;;;;;;19.55;74.00;102536.75;5073093;28;20045;-54
2021/07/17 09:29:00;;;;;;;14.18;5.13;;;;;;;19.57;73.97;102544.72;5072681;28;20041;-52
2021/07/17 09:31:31;;;;;;;13.65;4.95;;;;;;;19.63;73.23;102542.78;5072504;28;20487;-52
2021/07/17 09:34:06;;;;;;;14.65;5.22;;;;;;;19.65;72.68;102538.59;5072070;28;20040;-53
2021/07/17 09:36:49;;;;;;;12.65;5.07;;;;;;;19.69;73.85;102547.16;5072860;28;20132;-51
2021/07/17 09:39:22;;;;;;;15.90;5.55;;;;;;;19.77;71.59;102538.25;5072397;28;20040;-54
2021/07/17 09:42:00;;;;;;;15.90;5.80;;;;;;;19.77;72.28;102533.56;5072658;28;20383;-53
2021/07/17 09:44:30;;;;;;;16.65;5.70;;;;;;;19.84;72.64;102543.47;5072527;28;20049;-57
2021/07/17 09:46:58;;;;;;;13.77;4.78;;;;;;;19.87;70.90;102535.44;5072660;28;20049;-55
2021/07/17 09:49:27;;;;;;;15.10;4.75;;;;;;;19.90;71.19;102532.06;5071889;28;20446;-52
2021/07/17 09:52:08;;;;;;;18.95;5.30;;;;;;;19.96;69.33;102547.53;5072706;28;20045;-53
2021/07/17 09:54:39;;;;;;;14.43;3.83;;;;;;;19.98;70.49;102534.19;5072661;28;20037;-55
2021/07/17 09:57:07;;;;;;;14.60;4.70;;;;;;;20.02;69.29;102522.56;5072706;28;20032;-54
2021/07/17 09:59:35;;;;;;;12.80;4.25;;;;;;;20.07;69.74;102530.81;5072429;28;20059;-53
2021/07/17 10:02:02;;;;;;;13.15;4.18;;;;;;;20.13;68.31;102532.41;5072127;28;20043;-54
2021/07/17 10:04:31;;;;;;;10.85;3.83;;;;;;;20.16;67.70;102529.09;5072124;28;20098;-54
2021/07/17 10:07:08;;;;;;;11.27;3.83;;;;;;;20.28;66.81;102532.28;4371187;28;9999942;-57
2021/07/17 10:09:36;;;;;;;6.32;2.95;;;;;;;20.31;63.35;102525.34;5070800;28;20586;-60
2021/07/17 10:12:08;;;;;;;7.35;2.97;;;;;;;20.33;63.84;102518.38;5071472;28;20059;-60
2021/07/17 10:14:38;;;;;;;17.05;3.75;;;;;;;20.39;65.33;102514.44;5069486;28;20078;-60
2021/07/17 10:17:14;;;;;;;11.95;4.60;;;;;;;20.51;67.25;102524.28;5055772;28;20455;-58
2021/07/17 10:19:43;;;;;;;11.02;4.32;;;;;;;20.55;68.01;102519.81;5069708;28;20051;-56
2021/07/17 10:22:11;;;;;;;9.65;3.72;;;;;;;20.52;66.45;102523.19;5070193;28;20379;-58
2021/07/17 10:24:39;;;;;;;8.05;3.50;;;;;;;20.52;67.65;102520.41;5070219;28;20509;-61
2021/07/17 10:27:07;;;;;;;9.48;3.78;;;;;;;20.54;66.09;102520.91;5069829;28;20047;-55
2021/07/17 10:29:35;;;;;;;11.50;3.60;;;;;;;20.66;64.68;102523.31;5070085;28;20056;-56
2021/07/17 10:32:03;;;;;;;10.05;3.78;;;;;;;20.71;63.50;102521.31;5069044;28;20036;-57
2021/07/17 10:34:32;;;;;;;9.02;3.13;;;;;;;20.64;64.57;102520.84;5069982;28;20098;-58
2021/07/17 10:37:14;;;;;;;5.88;3.03;;;;;;;20.72;63.29;102524.91;5069722;28;20406;-59
2021/07/17 10:39:51;;;;;;;8.50;2.92;;;;;;;20.86;62.47;102531.38;5052143;28;20044;-60
2021/07/17 10:42:20;;;;;;;6.57;2.58;;;;;;;20.91;61.04;102538.81;5038129;28;20044;-59
2021/07/17 10:44:56;;;;;;;6.82;2.40;;;;;;;21.02;58.78;102523.69;5038215;28;20051;-59
2021/07/17 10:47:26;;;;;;;6.87;2.53;;;;;;;21.00;60.34;102521.22;5069231;28;20053;-58
2021/07/17 10:49:54;;;;;;;8.07;3.15;;;;;;;20.99;61.44;102515.97;5051736;28;20360;-60
2021/07/17 10:52:37;;;;;;;9.55;3.28;;;;;;;21.02;61.32;102518.13;5069707;28;20043;-61
2021/07/17 10:55:32;;;;;;;8.07;2.90;;;;;;;21.05;60.77;102517.56;5067612;28;20049;-56
2021/07/17 10:58:22;;;;;;;9.65;3.78;;;;;;;21.03;61.56;102514.25;5069518;28;20056;-61
2021/07/17 11:00:51;;;;;;;9.35;3.10;;;;;;;21.13;61.13;102519.66;5069174;28;20059;-58
2021/07/17 11:03:29;;;;;;;13.98;4.05;;;;;;;21.24;60.58;102521.19;5050189;28;20044;-60
2021/07/17 11:05:57;;;;;;;9.68;3.00;;;;;;;21.19;60.75;102518.47;5069582;28;20055;-61
2021/07/17 11:08:36;;;;;;;6.35;2.58;;;;;;;21.23;60.69;102502.88;5068630;28;20047;-61
2021/07/17 11:11:31;;;;;;;6.07;2.60;;;;;;;21.27;63.39;102517.78;5051486;28;20057;-61
2021/07/17 11:14:07;;;;;;;14.50;3.78;;;;;;;21.32;62.78;102516.06;5056674;28;20049;-59
2021/07/17 11:16:53;;;;;;;13.25;3.70;;;;;;;21.28;62.33;102510.28;5050480;28;20060;-60
2021/07/17 11:19:29;;;;;;;10.68;5.13;;;;;;;21.24;62.98;102520.34;5069184;28;20094;-61
2021/07/17 11:22:10;;;;;;;8.52;3.10;;;;;;;21.24;63.12;102512.03;5069071;28;20692;-60
2021/07/17 11:24:38;;;;;;;8.63;3.17;;;;;;;21.27;62.98;102506.69;5069248;28;20638;-61
2021/07/17 11:27:17;;;;;;;9.82;3.30;;;;;;;21.37;62.87;102511.28;5072328;28;20067;-61